sensor_id;sensor_type;location;lat;lon;timestamp;temperature;humidity
314;DHT22;143;51.634;7.112;2022-12-16T00:01:20;-2.50;99.90
314;DHT22;143;51.634;7.112;2022-12-16T00:03:52;-2.80;99.90
314;DHT22;143;51.634;7.112;2022-12-16T00:06:19;-2.80;99.90
314;DHT22;143;51.634;7.112;2022-12-16T00:08:46;-2.90;99.90
314;DHT22;143;51.634;7.112;2022-12-16T00:11:12;-2.80;99.90
314;DHT22;143;51.634;7.112;2022-12-16T00:13:38;-2.90;99.90
314;DHT22;143;51.634;7.112;2022-12-16T00:16:09;-2.80;99.90
314;DHT22;143;51.634;7.112;2022-12-16T00:18:36;-2.80;99.90
314;DHT22;143;51.634;7.112;2022-12-16T00:21:02;-2.90;99.90
314;DHT22;143;51.634;7.112;2022-12-16T00:23:28;-2.80;99.90
314;DHT22;143;51.634;7.112;2022-12-16T00:25:54;-2.80;99.90
314;DHT22;143;51.634;7.112;2022-12-16T00:28:20;-2.80;99.90
314;DHT22;143;51.634;7.112;2022-12-16T00:30:50;-2.90;99.90
314;DHT22;143;51.634;7.112;2022-12-16T00:33:17;-2.70;99.90
314;DHT22;143;51.634;7.112;2022-12-16T00:35:45;-3.10;99.90
314;DHT22;143;51.634;7.112;2022-12-16T00:38:11;-3.10;99.90
314;DHT22;143;51.634;7.112;2022-12-16T00:40:36;-3.10;99.90
314;DHT22;143;51.634;7.112;2022-12-16T00:43:02;-3.10;99.90
314;DHT22;143;51.634;7.112;2022-12-16T00:45:29;-3.20;99.90
314;DHT22;143;51.634;7.112;2022-12-16T00:47:54;-3.20;99.90
314;DHT22;143;51.634;7.112;2022-12-16T00:50:20;-3.20;99.90
314;DHT22;143;51.634;7.112;2022-12-16T00:52:46;-3.00;99.90
314;DHT22;143;51.634;7.112;2022-12-16T00:55:13;-3.00;99.90
314;DHT22;143;51.634;7.112;2022-12-16T00:57:39;-3.00;99.90
314;DHT22;143;51.634;7.112;2022-12-16T01:00:07;-3.00;99.90
314;DHT22;143;51.634;7.112;2022-12-16T01:02:40;-3.00;99.90
314;DHT22;143;51.634;7.112;2022-12-16T01:05:08;-3.00;99.90
314;DHT22;143;51.634;7.112;2022-12-16T01:07:36;-3.00;99.90
314;DHT22;143;51.634;7.112;2022-12-16T01:10:02;-2.90;99.90
314;DHT22;143;51.634;7.112;2022-12-16T01:12:28;-3.20;99.90
314;DHT22;143;51.634;7.112;2022-12-16T01:14:54;-2.70;99.90
314;DHT22;143;51.634;7.112;2022-12-16T01:17:19;-2.90;99.90
314;DHT22;143;51.634;7.112;2022-12-16T01:19:45;-2.70;99.90
314;DHT22;143;51.634;7.112;2022-12-16T01:22:11;-2.70;99.90
314;DHT22;143;51.634;7.112;2022-12-16T01:24:36;-2.60;99.90
314;DHT22;143;51.634;7.112;2022-12-16T01:27:02;-2.70;99.90
314;DHT22;143;51.634;7.112;2022-12-16T01:29:28;-2.40;99.90
314;DHT22;143;51.634;7.112;2022-12-16T01:31:54;-2.50;99.90
314;DHT22;143;51.634;7.112;2022-12-16T01:34:19;-2.60;99.90
314;DHT22;143;51.634;7.112;2022-12-16T01:36:45;-2.50;99.90
314;DHT22;143;51.634;7.112;2022-12-16T01:39:11;-2.60;99.90
314;DHT22;143;51.634;7.112;2022-12-16T01:41:37;-2.70;99.90
314;DHT22;143;51.634;7.112;2022-12-16T01:44:22;-2.60;99.90
314;DHT22;143;51.634;7.112;2022-12-16T01:46:55;-2.60;99.90
314;DHT22;143;51.634;7.112;2022-12-16T01:49:37;-2.60;99.90
314;DHT22;143;51.634;7.112;2022-12-16T01:52:06;-2.70;99.90
314;DHT22;143;51.634;7.112;2022-12-16T01:54:42;-2.80;99.90
314;DHT22;143;51.634;7.112;2022-12-16T01:57:16;-2.70;99.90
314;DHT22;143;51.634;7.112;2022-12-16T01:59:45;-2.50;99.90
314;DHT22;143;51.634;7.112;2022-12-16T02:02:12;-2.60;99.90
314;DHT22;143;51.634;7.112;2022-12-16T02:04:38;-2.50;99.90
314;DHT22;143;51.634;7.112;2022-12-16T02:07:23;-2.60;99.90
314;DHT22;143;51.634;7.112;2022-12-16T02:09:49;-2.50;99.90
314;DHT22;143;51.634;7.112;2022-12-16T02:15:33;-2.00;99.90
314;DHT22;143;51.634;7.112;2022-12-16T02:18:14;-1.70;1.00
314;DHT22;143;51.634;7.112;2022-12-16T02:21:22;-1.40;1.00
314;DHT22;143;51.634;7.112;2022-12-16T02:24:02;-0.50;99.90
314;DHT22;143;51.634;7.112;2022-12-16T02:35:08;0.10;99.90
314;DHT22;143;51.634;7.112;2022-12-16T02:40:22;0.20;99.90
314;DHT22;143;51.634;7.112;2022-12-16T02:42:59;0.10;99.90
314;DHT22;143;51.634;7.112;2022-12-16T02:45:28;0.50;99.90
314;DHT22;143;51.634;7.112;2022-12-16T02:47:55;0.60;99.90
314;DHT22;143;51.634;7.112;2022-12-16T02:50:36;0.70;99.90
314;DHT22;143;51.634;7.112;2022-12-16T02:53:04;0.60;99.90
314;DHT22;143;51.634;7.112;2022-12-16T03:04:06;0.80;99.90
314;DHT22;143;51.634;7.112;2022-12-16T03:06:35;0.80;99.90
314;DHT22;143;51.634;7.112;2022-12-16T03:09:05;0.60;99.90
314;DHT22;143;51.634;7.112;2022-12-16T03:11:32;0.60;99.90
314;DHT22;143;51.634;7.112;2022-12-16T03:13:58;0.40;99.90
314;DHT22;143;51.634;7.112;2022-12-16T03:16:28;0.40;99.90
314;DHT22;143;51.634;7.112;2022-12-16T03:18:58;0.60;99.90
314;DHT22;143;51.634;7.112;2022-12-16T03:21:29;0.40;99.90
314;DHT22;143;51.634;7.112;2022-12-16T03:23:58;0.60;99.90
314;DHT22;143;51.634;7.112;2022-12-16T03:26:33;0.70;99.90
314;DHT22;143;51.634;7.112;2022-12-16T03:29:12;0.70;99.90
314;DHT22;143;51.634;7.112;2022-12-16T03:31:49;0.60;99.90
314;DHT22;143;51.634;7.112;2022-12-16T03:36:55;0.10;99.90
314;DHT22;143;51.634;7.112;2022-12-16T03:39:22;0.10;99.90
314;DHT22;143;51.634;7.112;2022-12-16T03:41:51;0.00;99.90
314;DHT22;143;51.634;7.112;2022-12-16T03:44:21;0.00;99.90
314;DHT22;143;51.634;7.112;2022-12-16T03:46:47;0.00;99.90
314;DHT22;143;51.634;7.112;2022-12-16T03:49:13;-0.10;99.90
314;DHT22;143;51.634;7.112;2022-12-16T03:51:39;0.00;99.90
314;DHT22;143;51.634;7.112;2022-12-16T03:54:04;0.10;99.90
314;DHT22;143;51.634;7.112;2022-12-16T03:56:31;0.30;99.90
314;DHT22;143;51.634;7.112;2022-12-16T03:58:56;0.40;99.90
314;DHT22;143;51.634;7.112;2022-12-16T04:01:23;0.10;99.90
314;DHT22;143;51.634;7.112;2022-12-16T04:03:49;0.00;99.90
314;DHT22;143;51.634;7.112;2022-12-16T04:06:15;0.10;99.90
314;DHT22;143;51.634;7.112;2022-12-16T04:08:46;-0.10;99.90
314;DHT22;143;51.634;7.112;2022-12-16T04:11:13;0.20;99.90
314;DHT22;143;51.634;7.112;2022-12-16T04:13:58;0.20;99.90
314;DHT22;143;51.634;7.112;2022-12-16T04:16:42;0.20;99.90
314;DHT22;143;51.634;7.112;2022-12-16T04:19:34;0.20;99.90
314;DHT22;143;51.634;7.112;2022-12-16T04:22:32;0.10;99.90
314;DHT22;143;51.634;7.112;2022-12-16T04:25:23;0.00;99.90
314;DHT22;143;51.634;7.112;2022-12-16T04:27:50;0.00;99.90
314;DHT22;143;51.634;7.112;2022-12-16T04:30:17;0.00;99.90
314;DHT22;143;51.634;7.112;2022-12-16T04:32:57;0.00;99.90
314;DHT22;143;51.634;7.112;2022-12-16T04:35:43;0.10;99.90
314;DHT22;143;51.634;7.112;2022-12-16T04:38:27;0.00;99.90
314;DHT22;143;51.634;7.112;2022-12-16T04:41:12;0.20;99.90
314;DHT22;143;51.634;7.112;2022-12-16T04:43:56;0.30;99.90
314;DHT22;143;51.634;7.112;2022-12-16T04:46:40;0.30;99.90
314;DHT22;143;51.634;7.112;2022-12-16T04:49:24;0.30;99.90
314;DHT22;143;51.634;7.112;2022-12-16T04:52:08;0.30;99.90
314;DHT22;143;51.634;7.112;2022-12-16T04:54:53;-0.20;99.90
314;DHT22;143;51.634;7.112;2022-12-16T04:57:37;0.00;99.90
314;DHT22;143;51.634;7.112;2022-12-16T05:00:21;-0.40;99.90
314;DHT22;143;51.634;7.112;2022-12-16T05:03:06;-0.40;99.90
314;DHT22;143;51.634;7.112;2022-12-16T05:05:50;-0.50;99.90
314;DHT22;143;51.634;7.112;2022-12-16T05:08:34;-1.20;99.90
314;DHT22;143;51.634;7.112;2022-12-16T05:11:19;-1.40;99.90
314;DHT22;143;51.634;7.112;2022-12-16T05:14:03;-1.70;99.90
314;DHT22;143;51.634;7.112;2022-12-16T05:16:47;-1.70;99.90
314;DHT22;143;51.634;7.112;2022-12-16T05:19:31;-2.20;99.90
314;DHT22;143;51.634;7.112;2022-12-16T05:22:16;-2.30;99.90
314;DHT22;143;51.634;7.112;2022-12-16T05:25:00;-2.60;99.90
314;DHT22;143;51.634;7.112;2022-12-16T05:27:54;-2.70;99.90
314;DHT22;143;51.634;7.112;2022-12-16T05:30:39;-2.80;99.90
314;DHT22;143;51.634;7.112;2022-12-16T05:33:24;-2.90;99.90
314;DHT22;143;51.634;7.112;2022-12-16T05:36:08;-3.00;99.90
314;DHT22;143;51.634;7.112;2022-12-16T05:38:53;-2.80;99.90
314;DHT22;143;51.634;7.112;2022-12-16T05:41:38;-2.90;99.90
314;DHT22;143;51.634;7.112;2022-12-16T05:44:22;-3.00;99.90
314;DHT22;143;51.634;7.112;2022-12-16T05:47:08;-3.00;99.90
314;DHT22;143;51.634;7.112;2022-12-16T05:49:53;-3.00;99.90
314;DHT22;143;51.634;7.112;2022-12-16T05:52:37;-3.00;99.90
314;DHT22;143;51.634;7.112;2022-12-16T05:55:24;-2.90;99.90
314;DHT22;143;51.634;7.112;2022-12-16T05:58:09;-3.10;99.90
314;DHT22;143;51.634;7.112;2022-12-16T06:00:53;-3.10;99.90
314;DHT22;143;51.634;7.112;2022-12-16T06:03:37;-3.10;99.90
314;DHT22;143;51.634;7.112;2022-12-16T06:06:21;-2.90;99.90
314;DHT22;143;51.634;7.112;2022-12-16T06:09:05;-3.00;99.90
314;DHT22;143;51.634;7.112;2022-12-16T06:11:49;-2.80;99.90
314;DHT22;143;51.634;7.112;2022-12-16T06:14:34;-2.80;99.90
314;DHT22;143;51.634;7.112;2022-12-16T06:17:18;-2.90;99.90
314;DHT22;143;51.634;7.112;2022-12-16T06:20:03;-3.20;99.90
314;DHT22;143;51.634;7.112;2022-12-16T06:22:52;-3.20;99.90
314;DHT22;143;51.634;7.112;2022-12-16T06:25:37;-3.00;99.90
314;DHT22;143;51.634;7.112;2022-12-16T06:28:21;-3.00;99.90
314;DHT22;143;51.634;7.112;2022-12-16T06:31:07;-3.10;99.90
314;DHT22;143;51.634;7.112;2022-12-16T06:33:53;-3.20;99.90
314;DHT22;143;51.634;7.112;2022-12-16T06:36:38;-3.30;99.90
314;DHT22;143;51.634;7.112;2022-12-16T06:39:23;-3.20;99.90
314;DHT22;143;51.634;7.112;2022-12-16T06:42:08;-3.30;99.90
314;DHT22;143;51.634;7.112;2022-12-16T06:44:54;-3.40;99.90
314;DHT22;143;51.634;7.112;2022-12-16T06:47:43;-3.30;99.90
314;DHT22;143;51.634;7.112;2022-12-16T06:50:29;-3.40;99.90
314;DHT22;143;51.634;7.112;2022-12-16T06:53:15;-3.40;99.90
314;DHT22;143;51.634;7.112;2022-12-16T06:56:01;-3.10;99.90
314;DHT22;143;51.634;7.112;2022-12-16T06:58:47;-3.20;99.90
314;DHT22;143;51.634;7.112;2022-12-16T07:01:31;-3.30;99.90
314;DHT22;143;51.634;7.112;2022-12-16T07:04:16;-3.10;99.90
314;DHT22;143;51.634;7.112;2022-12-16T07:07:01;-3.20;99.90
314;DHT22;143;51.634;7.112;2022-12-16T07:09:45;-3.30;99.90
314;DHT22;143;51.634;7.112;2022-12-16T07:12:29;-3.00;99.90
314;DHT22;143;51.634;7.112;2022-12-16T07:15:14;-3.00;99.90
314;DHT22;143;51.634;7.112;2022-12-16T07:17:58;-3.40;99.90
314;DHT22;143;51.634;7.112;2022-12-16T07:20:42;-3.40;99.90
314;DHT22;143;51.634;7.112;2022-12-16T07:23:27;-3.30;99.90
314;DHT22;143;51.634;7.112;2022-12-16T07:26:11;-3.20;99.90
314;DHT22;143;51.634;7.112;2022-12-16T07:28:55;-3.30;99.90
314;DHT22;143;51.634;7.112;2022-12-16T07:31:44;-3.20;99.90
314;DHT22;143;51.634;7.112;2022-12-16T07:34:32;-3.30;99.90
314;DHT22;143;51.634;7.112;2022-12-16T07:37:16;-3.20;99.90
314;DHT22;143;51.634;7.112;2022-12-16T07:40:01;-3.30;99.90
314;DHT22;143;51.634;7.112;2022-12-16T07:42:46;-3.10;99.90
314;DHT22;143;51.634;7.112;2022-12-16T07:45:30;-3.10;99.90
314;DHT22;143;51.634;7.112;2022-12-16T07:48:14;-3.10;99.90
314;DHT22;143;51.634;7.112;2022-12-16T07:50:59;-3.10;99.90
314;DHT22;143;51.634;7.112;2022-12-16T07:53:43;-3.00;99.90
314;DHT22;143;51.634;7.112;2022-12-16T07:56:27;-2.90;99.90
314;DHT22;143;51.634;7.112;2022-12-16T07:59:12;-2.60;99.90
314;DHT22;143;51.634;7.112;2022-12-16T08:01:56;-2.70;99.90
314;DHT22;143;51.634;7.112;2022-12-16T08:04:40;-2.40;99.90
314;DHT22;143;51.634;7.112;2022-12-16T08:07:24;-2.40;99.90
314;DHT22;143;51.634;7.112;2022-12-16T08:10:08;-2.30;99.90
314;DHT22;143;51.634;7.112;2022-12-16T08:13:01;-2.00;99.90
314;DHT22;143;51.634;7.112;2022-12-16T08:15:46;-2.20;1.00
314;DHT22;143;51.634;7.112;2022-12-16T08:18:30;-1.80;1.00
314;DHT22;143;51.634;7.112;2022-12-16T08:21:14;-1.70;1.00
314;DHT22;143;51.634;7.112;2022-12-16T08:23:58;-1.60;1.00
314;DHT22;143;51.634;7.112;2022-12-16T08:26:42;-1.60;1.00
314;DHT22;143;51.634;7.112;2022-12-16T08:29:32;-1.50;1.00
314;DHT22;143;51.634;7.112;2022-12-16T08:32:17;-1.10;1.00
314;DHT22;143;51.634;7.112;2022-12-16T08:35:02;-1.10;1.00
314;DHT22;143;51.634;7.112;2022-12-16T08:37:48;-0.80;1.00
314;DHT22;143;51.634;7.112;2022-12-16T08:40:33;-0.60;1.00
314;DHT22;143;51.634;7.112;2022-12-16T08:43:17;-0.60;1.00
314;DHT22;143;51.634;7.112;2022-12-16T08:46:01;-0.80;1.00
314;DHT22;143;51.634;7.112;2022-12-16T08:48:46;-0.50;1.00
314;DHT22;143;51.634;7.112;2022-12-16T08:51:31;-0.60;1.00
314;DHT22;143;51.634;7.112;2022-12-16T08:54:16;-0.50;99.90
314;DHT22;143;51.634;7.112;2022-12-16T08:57:05;-0.60;99.90
314;DHT22;143;51.634;7.112;2022-12-16T08:59:50;-0.70;99.90
314;DHT22;143;51.634;7.112;2022-12-16T09:02:36;-1.00;99.90
314;DHT22;143;51.634;7.112;2022-12-16T09:05:21;-0.70;99.90
314;DHT22;143;51.634;7.112;2022-12-16T09:08:09;-1.00;1.00
314;DHT22;143;51.634;7.112;2022-12-16T09:10:54;-0.90;1.00
314;DHT22;143;51.634;7.112;2022-12-16T09:13:43;-0.70;1.00
314;DHT22;143;51.634;7.112;2022-12-16T09:16:27;-0.60;1.00
314;DHT22;143;51.634;7.112;2022-12-16T09:19:12;-0.40;1.00
314;DHT22;143;51.634;7.112;2022-12-16T09:21:57;-0.30;1.00
314;DHT22;143;51.634;7.112;2022-12-16T09:24:41;-0.40;1.00
314;DHT22;143;51.634;7.112;2022-12-16T09:27:27;-0.40;1.00
314;DHT22;143;51.634;7.112;2022-12-16T09:30:13;-0.30;1.00
314;DHT22;143;51.634;7.112;2022-12-16T09:33:08;-0.50;1.00
314;DHT22;143;51.634;7.112;2022-12-16T09:35:56;-0.20;1.00
314;DHT22;143;51.634;7.112;2022-12-16T09:38:46;-0.10;1.00
314;DHT22;143;51.634;7.112;2022-12-16T09:42:41;-0.20;1.00
314;DHT22;143;51.634;7.112;2022-12-16T09:48:47;-0.10;1.00
314;DHT22;143;51.634;7.112;2022-12-16T09:51:45;0.20;1.00
314;DHT22;143;51.634;7.112;2022-12-16T09:54:38;0.20;1.00
314;DHT22;143;51.634;7.112;2022-12-16T09:57:42;0.20;1.00
314;DHT22;143;51.634;7.112;2022-12-16T10:00:34;0.80;1.00
314;DHT22;143;51.634;7.112;2022-12-16T10:03:42;1.10;1.00
314;DHT22;143;51.634;7.112;2022-12-16T10:06:38;1.30;1.00
314;DHT22;143;51.634;7.112;2022-12-16T10:29:19;2.70;99.90
314;DHT22;143;51.634;7.112;2022-12-16T10:32:40;2.90;99.90
314;DHT22;143;51.634;7.112;2022-12-16T10:35:51;3.10;99.90
314;DHT22;143;51.634;7.112;2022-12-16T10:41:38;3.30;99.90
314;DHT22;143;51.634;7.112;2022-12-16T10:47:34;4.10;99.90
314;DHT22;143;51.634;7.112;2022-12-16T10:50:19;5.10;99.90
314;DHT22;143;51.634;7.112;2022-12-16T10:53:25;6.80;99.90
314;DHT22;143;51.634;7.112;2022-12-16T10:59:07;10.30;99.90
314;DHT22;143;51.634;7.112;2022-12-16T11:02:18;11.30;51.80
314;DHT22;143;51.634;7.112;2022-12-16T11:05:28;12.60;1.00
314;DHT22;143;51.634;7.112;2022-12-16T11:08:33;13.60;1.00
314;DHT22;143;51.634;7.112;2022-12-16T11:11:26;14.40;1.00
314;DHT22;143;51.634;7.112;2022-12-16T11:14:27;15.20;1.00
314;DHT22;143;51.634;7.112;2022-12-16T11:17:20;16.10;1.00
314;DHT22;143;51.634;7.112;2022-12-16T11:20:20;17.00;1.00
314;DHT22;143;51.634;7.112;2022-12-16T11:23:23;17.80;1.00
314;DHT22;143;51.634;7.112;2022-12-16T11:26:18;18.40;1.00
314;DHT22;143;51.634;7.112;2022-12-16T11:32:36;19.50;1.00
314;DHT22;143;51.634;7.112;2022-12-16T11:34:58;19.90;1.00
314;DHT22;143;51.634;7.112;2022-12-16T11:38:02;20.30;1.00
314;DHT22;143;51.634;7.112;2022-12-16T11:40:48;20.50;1.00
314;DHT22;143;51.634;7.112;2022-12-16T11:43:35;20.80;1.00
314;DHT22;143;51.634;7.112;2022-12-16T11:46:29;21.10;1.00
314;DHT22;143;51.634;7.112;2022-12-16T11:49:23;21.30;1.00
314;DHT22;143;51.634;7.112;2022-12-16T11:52:12;21.40;1.00
314;DHT22;143;51.634;7.112;2022-12-16T11:58:22;21.30;1.00
314;DHT22;143;51.634;7.112;2022-12-16T12:01:19;21.30;1.00
314;DHT22;143;51.634;7.112;2022-12-16T12:04:05;21.20;1.00
314;DHT22;143;51.634;7.112;2022-12-16T12:13:13;21.20;1.00
314;DHT22;143;51.634;7.112;2022-12-16T12:16:19;21.10;1.00
314;DHT22;143;51.634;7.112;2022-12-16T12:19:16;21.10;1.00
314;DHT22;143;51.634;7.112;2022-12-16T12:22:33;20.80;1.00
314;DHT22;143;51.634;7.112;2022-12-16T12:34:36;20.10;1.00
314;DHT22;143;51.634;7.112;2022-12-16T12:38:11;20.10;1.00
314;DHT22;143;51.634;7.112;2022-12-16T12:50:06;19.00;1.00
314;DHT22;143;51.634;7.112;2022-12-16T12:52:59;18.40;1.00
314;DHT22;143;51.634;7.112;2022-12-16T12:58:41;17.20;1.00
314;DHT22;143;51.634;7.112;2022-12-16T13:01:29;16.60;1.00
314;DHT22;143;51.634;7.112;2022-12-16T13:04:20;16.00;1.00
314;DHT22;143;51.634;7.112;2022-12-16T13:07:06;15.50;1.00
314;DHT22;143;51.634;7.112;2022-12-16T13:31:18;10.80;1.00
314;DHT22;143;51.634;7.112;2022-12-16T13:34:19;10.50;1.00
314;DHT22;143;51.634;7.112;2022-12-16T13:37:05;10.20;1.00
314;DHT22;143;51.634;7.112;2022-12-16T13:45:40;9.20;1.00
314;DHT22;143;51.634;7.112;2022-12-16T13:48:38;8.50;1.00
314;DHT22;143;51.634;7.112;2022-12-16T13:54:57;8.20;1.00
314;DHT22;143;51.634;7.112;2022-12-16T13:57:42;7.80;1.00
314;DHT22;143;51.634;7.112;2022-12-16T14:00:32;7.60;1.00
314;DHT22;143;51.634;7.112;2022-12-16T14:03:55;7.50;1.00
314;DHT22;143;51.634;7.112;2022-12-16T14:06:36;7.20;1.00
314;DHT22;143;51.634;7.112;2022-12-16T14:09:34;7.00;1.00
314;DHT22;143;51.634;7.112;2022-12-16T14:21:24;6.10;1.00
314;DHT22;143;51.634;7.112;2022-12-16T14:24:21;6.30;1.00
314;DHT22;143;51.634;7.112;2022-12-16T14:27:16;6.30;1.00
314;DHT22;143;51.634;7.112;2022-12-16T14:30:10;6.20;1.00
314;DHT22;143;51.634;7.112;2022-12-16T14:33:22;6.00;1.00
314;DHT22;143;51.634;7.112;2022-12-16T14:36:22;6.00;1.00
314;DHT22;143;51.634;7.112;2022-12-16T14:39:20;5.90;1.00
314;DHT22;143;51.634;7.112;2022-12-16T14:42:18;5.70;1.00
314;DHT22;143;51.634;7.112;2022-12-16T14:45:04;5.50;1.00
314;DHT22;143;51.634;7.112;2022-12-16T14:47:48;5.10;1.00
314;DHT22;143;51.634;7.112;2022-12-16T14:50:32;5.00;1.00
314;DHT22;143;51.634;7.112;2022-12-16T14:53:22;4.90;1.00
314;DHT22;143;51.634;7.112;2022-12-16T14:56:17;4.60;1.00
314;DHT22;143;51.634;7.112;2022-12-16T14:59:12;4.60;1.00
314;DHT22;143;51.634;7.112;2022-12-16T15:01:59;4.50;1.00
314;DHT22;143;51.634;7.112;2022-12-16T15:04:46;4.30;1.00
314;DHT22;143;51.634;7.112;2022-12-16T15:07:34;4.20;1.00
314;DHT22;143;51.634;7.112;2022-12-16T15:10:21;3.80;1.00
314;DHT22;143;51.634;7.112;2022-12-16T15:13:15;3.70;1.00
314;DHT22;143;51.634;7.112;2022-12-16T15:16:00;3.60;1.00
314;DHT22;143;51.634;7.112;2022-12-16T15:18:45;3.40;1.00
314;DHT22;143;51.634;7.112;2022-12-16T15:21:33;3.20;1.00
314;DHT22;143;51.634;7.112;2022-12-16T15:24:21;3.20;1.00
314;DHT22;143;51.634;7.112;2022-12-16T15:30:02;3.10;9.40
314;DHT22;143;51.634;7.112;2022-12-16T15:32:52;2.90;26.40
314;DHT22;143;51.634;7.112;2022-12-16T15:35:37;3.10;48.40
314;DHT22;143;51.634;7.112;2022-12-16T15:38:29;2.70;75.90
314;DHT22;143;51.634;7.112;2022-12-16T15:41:29;2.60;90.10
314;DHT22;143;51.634;7.112;2022-12-16T15:44:25;2.60;99.90
314;DHT22;143;51.634;7.112;2022-12-16T15:47:25;2.60;99.90
314;DHT22;143;51.634;7.112;2022-12-16T15:50:13;2.70;99.90
314;DHT22;143;51.634;7.112;2022-12-16T15:55:58;2.50;99.90
314;DHT22;143;51.634;7.112;2022-12-16T15:58:42;2.50;99.90
314;DHT22;143;51.634;7.112;2022-12-16T16:01:27;2.50;99.90
314;DHT22;143;51.634;7.112;2022-12-16T16:04:26;2.40;99.90
314;DHT22;143;51.634;7.112;2022-12-16T16:07:17;2.30;99.90
314;DHT22;143;51.634;7.112;2022-12-16T16:10:14;2.50;99.90
314;DHT22;143;51.634;7.112;2022-12-16T16:12:59;2.40;99.90
314;DHT22;143;51.634;7.112;2022-12-16T16:15:44;2.30;99.90
314;DHT22;143;51.634;7.112;2022-12-16T16:18:28;2.30;99.90
314;DHT22;143;51.634;7.112;2022-12-16T16:21:12;2.30;99.90
314;DHT22;143;51.634;7.112;2022-12-16T16:23:56;2.10;99.90
314;DHT22;143;51.634;7.112;2022-12-16T16:26:40;2.20;99.90
314;DHT22;143;51.634;7.112;2022-12-16T16:29:24;2.20;99.90
314;DHT22;143;51.634;7.112;2022-12-16T16:32:09;2.20;99.90
314;DHT22;143;51.634;7.112;2022-12-16T16:34:53;2.20;99.90
314;DHT22;143;51.634;7.112;2022-12-16T16:37:37;2.20;99.90
314;DHT22;143;51.634;7.112;2022-12-16T16:43:11;2.20;99.90
314;DHT22;143;51.634;7.112;2022-12-16T16:45:56;1.80;99.90
314;DHT22;143;51.634;7.112;2022-12-16T16:48:40;2.00;99.90
314;DHT22;143;51.634;7.112;2022-12-16T16:51:25;2.20;99.90
314;DHT22;143;51.634;7.112;2022-12-16T16:54:10;2.00;99.90
314;DHT22;143;51.634;7.112;2022-12-16T16:56:54;2.00;99.90
314;DHT22;143;51.634;7.112;2022-12-16T16:59:38;2.00;99.90
314;DHT22;143;51.634;7.112;2022-12-16T17:02:23;1.50;99.90
314;DHT22;143;51.634;7.112;2022-12-16T17:05:11;1.90;99.90
314;DHT22;143;51.634;7.112;2022-12-16T17:07:55;1.80;99.90
314;DHT22;143;51.634;7.112;2022-12-16T17:10:40;1.50;99.90
314;DHT22;143;51.634;7.112;2022-12-16T17:13:24;1.70;99.90
314;DHT22;143;51.634;7.112;2022-12-16T17:16:11;1.50;99.90
314;DHT22;143;51.634;7.112;2022-12-16T17:18:55;1.30;99.90
314;DHT22;143;51.634;7.112;2022-12-16T17:21:39;1.30;99.90
314;DHT22;143;51.634;7.112;2022-12-16T17:24:23;1.30;99.90
314;DHT22;143;51.634;7.112;2022-12-16T17:27:20;1.30;99.90
314;DHT22;143;51.634;7.112;2022-12-16T17:30:19;1.10;99.90
314;DHT22;143;51.634;7.112;2022-12-16T17:33:04;1.20;1.00
314;DHT22;143;51.634;7.112;2022-12-16T17:35:49;1.20;1.00
314;DHT22;143;51.634;7.112;2022-12-16T17:38:40;0.80;1.00
314;DHT22;143;51.634;7.112;2022-12-16T17:41:27;0.90;1.00
314;DHT22;143;51.634;7.112;2022-12-16T17:44:12;1.10;1.00
314;DHT22;143;51.634;7.112;2022-12-16T17:46:57;0.70;1.00
314;DHT22;143;51.634;7.112;2022-12-16T17:49:41;0.80;1.00
314;DHT22;143;51.634;7.112;2022-12-16T17:52:25;0.70;1.00
314;DHT22;143;51.634;7.112;2022-12-16T17:55:10;0.60;1.00
314;DHT22;143;51.634;7.112;2022-12-16T17:57:54;0.70;1.00
314;DHT22;143;51.634;7.112;2022-12-16T18:00:38;0.60;1.00
314;DHT22;143;51.634;7.112;2022-12-16T18:03:22;0.30;1.00
314;DHT22;143;51.634;7.112;2022-12-16T18:06:06;0.20;1.00
314;DHT22;143;51.634;7.112;2022-12-16T18:08:51;0.20;1.00
314;DHT22;143;51.634;7.112;2022-12-16T18:11:35;0.30;1.00
314;DHT22;143;51.634;7.112;2022-12-16T18:14:19;0.20;1.00
314;DHT22;143;51.634;7.112;2022-12-16T18:17:03;0.20;1.00
314;DHT22;143;51.634;7.112;2022-12-16T18:19:47;0.20;1.00
314;DHT22;143;51.634;7.112;2022-12-16T18:22:31;0.20;1.00
314;DHT22;143;51.634;7.112;2022-12-16T18:25:15;0.20;1.00
314;DHT22;143;51.634;7.112;2022-12-16T18:27:59;0.40;1.00
314;DHT22;143;51.634;7.112;2022-12-16T18:30:43;0.40;1.00
314;DHT22;143;51.634;7.112;2022-12-16T18:33:28;0.10;1.00
314;DHT22;143;51.634;7.112;2022-12-16T18:36:12;0.40;1.00
314;DHT22;143;51.634;7.112;2022-12-16T18:38:56;0.40;1.00
314;DHT22;143;51.634;7.112;2022-12-16T18:41:44;0.50;1.00
314;DHT22;143;51.634;7.112;2022-12-16T18:44:30;0.50;1.00
314;DHT22;143;51.634;7.112;2022-12-16T18:47:15;0.60;1.00
314;DHT22;143;51.634;7.112;2022-12-16T18:49:59;0.60;1.00
314;DHT22;143;51.634;7.112;2022-12-16T18:52:43;0.70;1.00
314;DHT22;143;51.634;7.112;2022-12-16T18:55:28;0.70;1.00
314;DHT22;143;51.634;7.112;2022-12-16T18:58:12;0.80;1.00
314;DHT22;143;51.634;7.112;2022-12-16T19:03:44;0.70;1.00
314;DHT22;143;51.634;7.112;2022-12-16T19:06:29;0.60;1.00
314;DHT22;143;51.634;7.112;2022-12-16T19:09:13;0.60;1.00
314;DHT22;143;51.634;7.112;2022-12-16T19:11:57;0.60;1.00
314;DHT22;143;51.634;7.112;2022-12-16T19:14:41;0.80;1.00
314;DHT22;143;51.634;7.112;2022-12-16T19:17:25;0.80;1.00
314;DHT22;143;51.634;7.112;2022-12-16T19:20:10;0.60;1.00
314;DHT22;143;51.634;7.112;2022-12-16T19:22:54;0.40;1.00
314;DHT22;143;51.634;7.112;2022-12-16T19:25:40;0.10;1.00
314;DHT22;143;51.634;7.112;2022-12-16T19:28:24;0.00;1.00
314;DHT22;143;51.634;7.112;2022-12-16T19:31:08;0.00;1.00
314;DHT22;143;51.634;7.112;2022-12-16T19:33:55;0.10;1.00
314;DHT22;143;51.634;7.112;2022-12-16T19:36:40;0.00;1.00
314;DHT22;143;51.634;7.112;2022-12-16T19:39:25;0.20;1.00
314;DHT22;143;51.634;7.112;2022-12-16T19:42:12;0.20;1.00
314;DHT22;143;51.634;7.112;2022-12-16T19:44:56;0.20;1.00
314;DHT22;143;51.634;7.112;2022-12-16T19:47:41;0.20;1.00
314;DHT22;143;51.634;7.112;2022-12-16T19:50:26;0.40;1.00
314;DHT22;143;51.634;7.112;2022-12-16T19:53:11;0.10;1.00
314;DHT22;143;51.634;7.112;2022-12-16T19:55:58;0.10;1.00
314;DHT22;143;51.634;7.112;2022-12-16T19:58:44;0.20;1.00
314;DHT22;143;51.634;7.112;2022-12-16T20:01:28;0.40;1.00
314;DHT22;143;51.634;7.112;2022-12-16T20:04:13;0.30;1.00
314;DHT22;143;51.634;7.112;2022-12-16T20:06:57;0.40;1.00
314;DHT22;143;51.634;7.112;2022-12-16T20:09:41;0.40;1.00
314;DHT22;143;51.634;7.112;2022-12-16T20:12:28;0.50;1.00
314;DHT22;143;51.634;7.112;2022-12-16T20:15:13;0.50;1.00
314;DHT22;143;51.634;7.112;2022-12-16T20:17:57;0.50;1.00
314;DHT22;143;51.634;7.112;2022-12-16T20:20:41;0.40;1.00
314;DHT22;143;51.634;7.112;2022-12-16T20:23:25;0.50;1.00
314;DHT22;143;51.634;7.112;2022-12-16T20:26:09;0.40;1.00
314;DHT22;143;51.634;7.112;2022-12-16T20:28:54;0.40;1.00
314;DHT22;143;51.634;7.112;2022-12-16T20:31:38;0.60;1.00
314;DHT22;143;51.634;7.112;2022-12-16T20:34:22;0.70;1.00
314;DHT22;143;51.634;7.112;2022-12-16T20:37:06;0.60;1.00
314;DHT22;143;51.634;7.112;2022-12-16T20:39:50;0.70;1.00
314;DHT22;143;51.634;7.112;2022-12-16T20:42:34;0.60;1.00
314;DHT22;143;51.634;7.112;2022-12-16T20:45:18;0.80;1.00
314;DHT22;143;51.634;7.112;2022-12-16T20:48:03;0.80;1.00
314;DHT22;143;51.634;7.112;2022-12-16T20:51:00;0.50;1.00
314;DHT22;143;51.634;7.112;2022-12-16T20:53:47;0.60;1.00
314;DHT22;143;51.634;7.112;2022-12-16T20:56:32;0.70;1.00
314;DHT22;143;51.634;7.112;2022-12-16T20:59:17;0.60;1.00
314;DHT22;143;51.634;7.112;2022-12-16T21:02:01;0.80;1.00
314;DHT22;143;51.634;7.112;2022-12-16T21:04:45;0.50;1.00
314;DHT22;143;51.634;7.112;2022-12-16T21:07:29;0.50;1.00